Time;durP1;ratioP1;P1;durP2;ratioP2;P2;SDS_P1;SDS_P2;PMS_P1;PMS_P2;Temp;Humidity;BMP_temperature;BMP_pressure;BME280_temperature;BME280_humidity;BME280_pressure;Samples;Min_cycle;Max_cycle;Signal;HPM_P1;HPM_P2
2023/09/18 00:01:50;;;;;;;61.53;38.05;;;19.00;99.90;;;;;;5070731;28;20490;-73
2023/09/18 00:04:16;;;;;;;60.58;37.42;;;19.10;99.90;;;;;;5071083;28;20033;-73
2023/09/18 00:06:42;;;;;;;53.42;35.05;;;19.10;99.90;;;;;;5070851;28;20036;-73
2023/09/18 00:09:11;;;;;;;58.72;38.83;;;19.00;99.90;;;;;;5070528;28;20009;-73
2023/09/18 00:11:38;;;;;;;61.45;38.70;;;19.10;99.90;;;;;;5069956;28;20020;-73
2023/09/18 00:14:04;;;;;;;55.63;37.25;;;19.10;99.90;;;;;;5070685;28;20078;-73
2023/09/18 00:16:30;;;;;;;54.13;36.10;;;19.10;99.90;;;;;;5070198;28;20371;-73
2023/09/18 00:18:56;;;;;;;55.53;35.97;;;19.10;99.90;;;;;;5069907;28;20043;-73
2023/09/18 00:21:21;;;;;;;56.63;37.40;;;19.10;99.90;;;;;;5069814;28;20024;-73
2023/09/18 00:23:47;;;;;;;56.70;37.47;;;19.10;99.90;;;;;;5070071;28;20020;-73
2023/09/18 00:26:12;;;;;;;60.22;38.72;;;19.20;99.90;;;;;;5070720;28;20087;-73
2023/09/18 00:28:38;;;;;;;53.33;34.83;;;19.20;99.90;;;;;;5074056;28;20476;-73
2023/09/18 00:31:04;;;;;;;57.70;37.47;;;19.20;99.90;;;;;;5073679;28;20013;-73
2023/09/18 00:33:29;;;;;;;53.53;35.50;;;19.20;99.90;;;;;;5074032;28;20024;-73
2023/09/18 00:35:55;;;;;;;51.38;34.72;;;19.20;99.90;;;;;;5073447;28;20104;-73
2023/09/18 00:38:21;;;;;;;48.13;33.63;;;19.20;99.90;;;;;;5073749;28;20048;-73
2023/09/18 00:40:46;;;;;;;55.28;36.50;;;19.20;99.90;;;;;;5073571;28;20107;-73
2023/09/18 00:43:12;;;;;;;53.50;35.72;;;19.20;99.90;;;;;;5060822;28;20075;-73
2023/09/18 00:45:48;;;;;;;53.88;35.38;;;19.20;99.90;;;;;;5073733;28;20033;-73
2023/09/18 00:48:17;;;;;;;53.92;33.97;;;19.20;99.90;;;;;;5061781;28;20282;-73
2023/09/18 00:50:46;;;;;;;56.53;35.67;;;19.20;99.90;;;;;;5073460;28;20025;-73
2023/09/18 00:53:19;;;;;;;47.88;31.88;;;19.20;99.90;;;;;;5073562;28;20419;-73
2023/09/18 00:55:46;;;;;;;50.45;34.33;;;19.20;99.90;;;;;;5073441;28;20016;-73
2023/09/18 00:58:11;;;;;;;50.60;34.70;;;19.20;99.90;;;;;;5073369;28;20009;-73
2023/09/18 01:00:38;;;;;;;47.47;33.80;;;19.20;99.90;;;;;;5073233;28;20023;-73
2023/09/18 01:03:04;;;;;;;48.65;32.45;;;19.20;99.90;;;;;;5072846;28;20646;-74
2023/09/18 01:05:33;;;;;;;49.50;32.40;;;19.20;99.90;;;;;;5070759;28;20048;-73
2023/09/18 01:07:59;;;;;;;48.20;32.17;;;19.20;99.90;;;;;;5073565;28;20024;-73
2023/09/18 01:10:32;;;;;;;47.25;32.25;;;19.20;99.90;;;;;;5073043;28;20522;-73
2023/09/18 01:13:17;;;;;;;50.08;33.25;;;19.20;99.90;;;;;;5072982;28;20021;-73
2023/09/18 01:15:57;;;;;;;45.25;32.70;;;19.20;99.90;;;;;;5073701;28;20017;-73
2023/09/18 01:18:23;;;;;;;45.83;32.40;;;19.20;99.90;;;;;;5072825;28;20021;-73
2023/09/18 01:20:49;;;;;;;51.92;34.20;;;19.20;99.90;;;;;;5066347;28;20028;-73
2023/09/18 01:23:14;;;;;;;48.88;34.08;;;19.20;99.90;;;;;;5069280;28;20008;-73
2023/09/18 01:25:40;;;;;;;49.78;34.28;;;19.20;99.90;;;;;;5072704;28;20028;-73
2023/09/18 01:28:05;;;;;;;52.30;35.53;;;19.20;99.90;;;;;;5072661;28;20013;-73
2023/09/18 01:30:31;;;;;;;56.28;35.92;;;19.20;99.90;;;;;;5072940;28;20510;-74
2023/09/18 01:32:58;;;;;;;48.30;33.90;;;19.20;99.90;;;;;;5072550;28;20025;-74
2023/09/18 01:35:29;;;;;;;44.13;32.42;;;19.20;99.90;;;;;;5068104;28;20033;-74
2023/09/18 01:37:57;;;;;;;49.05;33.10;;;19.20;99.90;;;;;;5072001;28;20039;-74
2023/09/18 01:40:24;;;;;;;51.00;34.92;;;19.20;99.90;;;;;;5072679;28;20351;-74
2023/09/18 01:42:50;;;;;;;47.13;32.80;;;19.20;99.90;;;;;;5072394;28;20491;-74
2023/09/18 01:45:16;;;;;;;48.17;34.30;;;19.20;99.90;;;;;;5072493;28;20094;-74
2023/09/18 01:47:41;;;;;;;48.85;34.03;;;19.20;99.90;;;;;;5072329;28;20021;-74
2023/09/18 01:50:07;;;;;;;49.83;34.30;;;19.20;99.90;;;;;;5072663;28;20100;-74
2023/09/18 01:52:36;;;;;;;48.95;33.95;;;19.20;99.90;;;;;;5072228;28;20032;-74
2023/09/18 01:55:05;;;;;;;50.30;33.80;;;19.30;99.90;;;;;;5072381;28;20031;-74
2023/09/18 01:57:31;;;;;;;53.35;35.75;;;19.30;99.90;;;;;;5072282;28;20025;-74
2023/09/18 01:59:57;;;;;;;53.20;35.78;;;19.30;99.90;;;;;;5072212;28;20029;-74
2023/09/18 02:02:23;;;;;;;46.58;32.63;;;19.30;99.90;;;;;;5070872;28;20047;-74
2023/09/18 02:04:49;;;;;;;47.53;32.83;;;19.40;99.90;;;;;;5070816;28;20136;-74
2023/09/18 02:07:15;;;;;;;47.25;33.05;;;19.30;99.90;;;;;;5064890;28;20113;-74
2023/09/18 02:09:40;;;;;;;49.00;34.38;;;19.40;99.90;;;;;;5072147;28;20009;-74
2023/09/18 02:12:06;;;;;;;49.35;34.60;;;19.30;99.90;;;;;;5072125;28;20506;-74
2023/09/18 02:14:32;;;;;;;45.20;31.77;;;19.40;99.90;;;;;;5071034;28;20067;-73
2023/09/18 02:16:58;;;;;;;45.95;31.80;;;19.40;99.90;;;;;;5072029;28;20017;-74
2023/09/18 02:19:24;;;;;;;48.88;32.60;;;19.40;99.90;;;;;;5068596;28;20020;-74
2023/09/18 02:21:49;;;;;;;45.47;31.80;;;19.40;99.90;;;;;;5071842;28;20049;-74
2023/09/18 02:24:15;;;;;;;49.63;30.85;;;19.40;99.90;;;;;;5067830;28;20029;-74
2023/09/18 02:26:40;;;;;;;42.30;29.20;;;19.40;99.90;;;;;;5063848;28;20376;-74
2023/09/18 02:29:13;;;;;;;40.80;29.15;;;19.40;99.90;;;;;;5071559;28;20020;-74
2023/09/18 02:31:39;;;;;;;45.58;29.00;;;19.40;99.90;;;;;;5072028;28;20111;-74
2023/09/18 02:34:05;;;;;;;40.65;28.38;;;19.50;99.90;;;;;;5071428;28;20416;-74
2023/09/18 02:36:31;;;;;;;38.03;26.38;;;19.40;99.90;;;;;;5071651;28;20067;-74
2023/09/18 02:38:56;;;;;;;39.75;26.40;;;19.50;99.90;;;;;;5071704;28;20407;-74
2023/09/18 02:41:22;;;;;;;38.45;26.20;;;19.50;99.90;;;;;;5071263;28;20612;-74
2023/09/18 02:43:47;;;;;;;35.22;25.13;;;19.50;99.90;;;;;;5071218;28;20024;-74
2023/09/18 02:46:13;;;;;;;38.70;24.90;;;19.50;99.90;;;;;;5071344;28;20050;-74
2023/09/18 02:48:39;;;;;;;34.00;24.15;;;19.50;99.90;;;;;;5071966;28;20047;-74
2023/09/18 02:51:05;;;;;;;32.63;23.50;;;19.50;99.90;;;;;;5074566;28;20024;-74
2023/09/18 02:53:31;;;;;;;35.45;24.70;;;19.50;99.90;;;;;;5075571;28;20024;-74
2023/09/18 02:55:58;;;;;;;34.05;23.70;;;19.60;99.90;;;;;;5076680;28;20051;-74
2023/09/18 02:58:29;;;;;;;31.10;22.67;;;19.50;99.90;;;;;;5073236;28;20094;-74
2023/09/18 03:00:59;;;;;;;32.80;21.90;;;19.60;99.90;;;;;;5072861;28;20375;-74
2023/09/18 03:03:25;;;;;;;29.65;22.50;;;19.60;99.90;;;;;;5071674;28;20043;-74
2023/09/18 03:05:51;;;;;;;33.55;21.88;;;19.60;99.90;;;;;;5069870;28;20052;-74
2023/09/18 03:08:17;;;;;;;30.98;23.52;;;19.60;99.90;;;;;;5068911;28;20031;-74
2023/09/18 03:10:44;;;;;;;32.85;22.85;;;19.50;99.90;;;;;;5070988;28;20025;-75
2023/09/18 03:13:12;;;;;;;33.75;23.23;;;19.50;99.90;;;;;;5070741;28;20391;-74
2023/09/18 03:15:38;;;;;;;31.10;22.23;;;19.50;99.90;;;;;;5070201;28;20049;-74
2023/09/18 03:18:05;;;;;;;33.88;23.70;;;19.50;99.90;;;;;;5070894;28;20025;-74
2023/09/18 03:20:31;;;;;;;29.33;21.67;;;19.50;99.90;;;;;;5070620;28;20008;-74
2023/09/18 03:22:59;;;;;;;31.13;21.95;;;19.50;99.90;;;;;;5070664;28;20024;-74
2023/09/18 03:25:25;;;;;;;29.75;21.88;;;19.50;99.90;;;;;;5070540;28;20029;-74
2023/09/18 03:27:55;;;;;;;37.80;23.42;;;19.50;99.90;;;;;;5070723;28;20020;-73
2023/09/18 03:30:23;;;;;;;37.13;23.67;;;19.50;99.90;;;;;;5070385;28;20036;-74
2023/09/18 03:32:49;;;;;;;38.10;24.42;;;19.50;99.90;;;;;;5070794;28;20237;-74
2023/09/18 03:35:17;;;;;;;35.25;24.42;;;19.60;99.90;;;;;;5070724;28;20429;-74
2023/09/18 03:37:51;;;;;;;40.05;23.95;;;19.50;99.90;;;;;;5070796;28;20028;-74
2023/09/18 03:40:17;;;;;;;52.53;26.02;;;19.60;99.90;;;;;;5070468;28;20377;-73
2023/09/18 03:42:44;;;;;;;48.85;27.23;;;19.60;99.90;;;;;;5068713;28;20100;-74
2023/09/18 03:45:10;;;;;;;42.95;24.50;;;19.60;99.90;;;;;;5070216;28;20047;-74
2023/09/18 03:47:39;;;;;;;40.67;25.27;;;19.60;99.90;;;;;;5070391;28;20073;-74
2023/09/18 03:50:13;;;;;;;39.90;24.40;;;19.60;99.90;;;;;;5070873;28;20015;-74
2023/09/18 03:52:39;;;;;;;35.10;23.30;;;19.60;99.90;;;;;;5070628;28;20032;-74
2023/09/18 03:55:06;;;;;;;34.75;22.23;;;19.60;99.90;;;;;;5070620;28;20642;-74
2023/09/18 03:57:32;;;;;;;35.58;22.33;;;19.60;99.90;;;;;;5070258;28;20475;-74
2023/09/18 03:59:58;;;;;;;34.22;23.00;;;19.60;99.90;;;;;;5070255;28;20019;-74
2023/09/18 04:02:25;;;;;;;32.95;21.63;;;19.60;99.90;;;;;;5063685;28;20029;-73
2023/09/18 04:04:51;;;;;;;33.78;21.33;;;19.60;99.90;;;;;;5070109;28;20087;-73
2023/09/18 04:07:19;;;;;;;32.20;20.42;;;19.60;99.90;;;;;;5070362;28;20025;-74
2023/09/18 04:09:45;;;;;;;30.98;19.90;;;19.60;99.90;;;;;;5070539;28;20048;-74
2023/09/18 04:12:10;;;;;;;31.45;20.10;;;19.60;99.90;;;;;;5069951;28;20083;-74
2023/09/18 04:14:36;;;;;;;34.42;20.70;;;19.60;99.90;;;;;;5070252;28;20067;-74
2023/09/18 04:17:02;;;;;;;33.60;20.63;;;19.60;99.90;;;;;;5057692;28;20025;-74
2023/09/18 04:19:28;;;;;;;34.92;20.90;;;19.70;99.90;;;;;;5070127;28;20391;-74
2023/09/18 04:21:54;;;;;;;31.88;20.92;;;19.60;99.90;;;;;;5070293;28;20035;-74
2023/09/18 04:24:20;;;;;;;33.40;20.55;;;19.70;99.90;;;;;;5069989;28;20446;-73
2023/09/18 04:26:45;;;;;;;30.52;20.23;;;19.70;99.90;;;;;;5069732;28;20029;-73
2023/09/18 04:29:11;;;;;;;34.80;21.33;;;19.60;99.90;;;;;;5070445;28;20471;-73
2023/09/18 04:31:38;;;;;;;29.73;19.60;;;19.60;99.90;;;;;;5069548;28;20458;-73
2023/09/18 04:34:03;;;;;;;28.40;19.13;;;19.70;99.90;;;;;;5069945;28;20443;-73
2023/09/18 04:36:29;;;;;;;30.27;18.95;;;19.70;99.90;;;;;;5069365;28;20060;-73
2023/09/18 04:38:55;;;;;;;33.33;18.52;;;19.70;99.90;;;;;;5067690;28;20036;-72
2023/09/18 04:41:21;;;;;;;27.92;18.48;;;19.70;99.90;;;;;;5069907;28;20021;-72
2023/09/18 04:43:47;;;;;;;28.10;19.00;;;19.70;99.90;;;;;;5069511;28;20021;-72
2023/09/18 04:46:12;;;;;;;25.58;18.48;;;19.60;99.90;;;;;;5068695;28;20035;-73
2023/09/18 04:48:38;;;;;;;29.77;19.08;;;19.60;99.90;;;;;;5069700;28;20579;-73
2023/09/18 04:51:04;;;;;;;29.88;18.63;;;19.60;99.90;;;;;;5069325;28;20016;-73
2023/09/18 04:53:30;;;;;;;33.33;18.92;;;19.60;99.90;;;;;;5068243;28;20498;-73
2023/09/18 04:55:56;;;;;;;28.73;19.45;;;19.60;99.90;;;;;;5069258;28;20048;-73
2023/09/18 04:58:21;;;;;;;34.53;19.17;;;19.60;99.90;;;;;;5068318;28;20063;-73
2023/09/18 05:00:54;;;;;;;31.20;19.13;;;19.60;99.90;;;;;;5068875;28;20074;-74
2023/09/18 05:03:20;;;;;;;31.85;20.38;;;19.60;99.90;;;;;;5069895;28;20031;-74
2023/09/18 05:05:46;;;;;;;35.05;20.65;;;19.60;99.90;;;;;;5068572;28;20055;-73
2023/09/18 05:08:11;;;;;;;31.70;20.35;;;19.60;99.90;;;;;;5069494;28;20021;-73
2023/09/18 05:10:37;;;;;;;33.35;21.25;;;19.60;99.90;;;;;;5069416;28;20499;-73
2023/09/18 05:13:03;;;;;;;32.28;21.00;;;19.60;99.90;;;;;;5070893;28;20108;-73
2023/09/18 05:15:29;;;;;;;36.70;20.45;;;19.60;99.90;;;;;;5070704;28;20531;-73
2023/09/18 05:17:57;;;;;;;31.20;20.83;;;19.60;99.90;;;;;;5072971;28;20476;-73
2023/09/18 05:20:25;;;;;;;32.40;21.33;;;19.60;99.90;;;;;;5072681;28;20017;-73
2023/09/18 05:22:55;;;;;;;36.08;21.80;;;19.60;99.90;;;;;;5072766;28;20044;-74
2023/09/18 05:25:22;;;;;;;35.35;21.38;;;19.60;99.90;;;;;;5066655;28;20032;-74
2023/09/18 05:27:56;;;;;;;32.30;22.17;;;19.60;99.90;;;;;;5071067;28;20051;-74
2023/09/18 05:30:40;;;;;;;36.17;22.30;;;19.60;99.90;;;;;;5072525;28;20025;-73
2023/09/18 05:33:08;;;;;;;36.05;23.48;;;19.60;99.90;;;;;;5072107;28;20025;-74
2023/09/18 05:35:36;;;;;;;36.33;22.92;;;19.60;99.90;;;;;;5072261;28;20569;-73
2023/09/18 05:38:02;;;;;;;34.20;23.48;;;19.70;99.90;;;;;;5072328;28;20029;-73
2023/09/18 05:40:28;;;;;;;33.53;21.58;;;19.60;99.90;;;;;;5071669;28;20451;-73
2023/09/18 05:42:55;;;;;;;34.67;21.95;;;19.70;99.90;;;;;;5070777;28;20114;-73
2023/09/18 05:45:20;;;;;;;33.33;22.27;;;19.70;99.90;;;;;;5070286;28;20166;-73
2023/09/18 05:47:47;;;;;;;37.97;23.10;;;19.70;99.90;;;;;;5070836;28;20451;-73
2023/09/18 05:50:16;;;;;;;38.22;23.15;;;19.70;99.90;;;;;;5071871;28;20492;-74
2023/09/18 05:52:46;;;;;;;35.70;23.35;;;19.70;99.90;;;;;;5065883;28;20025;-73
2023/09/18 05:55:14;;;;;;;36.17;23.10;;;19.70;99.90;;;;;;5068618;28;20020;-73
2023/09/18 05:57:39;;;;;;;35.63;22.77;;;19.70;99.90;;;;;;5071449;28;20024;-74
2023/09/18 06:00:05;;;;;;;35.15;23.58;;;19.70;99.90;;;;;;5071473;28;20101;-73
2023/09/18 06:02:31;;;;;;;36.60;23.58;;;19.70;99.90;;;;;;5070020;28;20024;-74
2023/09/18 06:05:00;;;;;;;40.10;23.48;;;19.70;99.90;;;;;;5071644;28;20044;-74
2023/09/18 06:07:27;;;;;;;36.00;23.55;;;19.70;99.90;;;;;;5070378;28;20065;-74
2023/09/18 06:09:53;;;;;;;39.22;24.52;;;19.70;99.90;;;;;;5072088;28;20024;-73
2023/09/18 06:12:18;;;;;;;44.10;25.27;;;19.70;99.90;;;;;;5071861;28;20033;-74
2023/09/18 06:14:44;;;;;;;36.15;24.23;;;19.60;99.90;;;;;;5072094;28;20550;-74
2023/09/18 06:17:10;;;;;;;46.20;24.52;;;19.60;99.90;;;;;;5071765;28;20364;-74
2023/09/18 06:19:36;;;;;;;35.35;22.80;;;19.60;99.90;;;;;;5071950;28;20086;-73
2023/09/18 06:22:02;;;;;;;37.22;23.00;;;19.60;99.90;;;;;;5071663;28;20027;-74
2023/09/18 06:24:27;;;;;;;34.40;21.42;;;19.60;99.90;;;;;;5063852;28;20108;-74
2023/09/18 06:26:53;;;;;;;30.25;19.80;;;19.60;99.90;;;;;;5071439;28;20029;-74
2023/09/18 06:29:19;;;;;;;27.67;18.05;;;19.60;99.90;;;;;;5071640;28;20059;-74
2023/09/18 06:31:45;;;;;;;24.85;16.50;;;19.50;99.90;;;;;;5065540;28;20086;-73
2023/09/18 06:34:10;;;;;;;24.10;15.38;;;19.50;99.90;;;;;;5071901;28;20154;-73
2023/09/18 06:36:37;;;;;;;17.00;11.73;;;19.50;99.90;;;;;;5071419;28;20480;-74
2023/09/18 06:39:03;;;;;;;19.10;11.40;;;19.50;99.90;;;;;;5069613;28;20013;-74
2023/09/18 06:41:28;;;;;;;19.60;11.40;;;19.40;99.90;;;;;;5066139;28;20537;-74
2023/09/18 06:43:54;;;;;;;18.30;11.73;;;19.40;99.90;;;;;;5071439;28;20031;-74
2023/09/18 06:46:20;;;;;;;17.23;11.20;;;19.40;99.90;;;;;;5071008;28;20036;-74
2023/09/18 06:48:49;;;;;;;17.65;10.43;;;19.40;99.90;;;;;;5071317;28;20016;-74
2023/09/18 06:51:15;;;;;;;15.20;9.85;;;19.40;99.90;;;;;;5071390;28;20044;-74
2023/09/18 06:53:40;;;;;;;14.32;9.25;;;19.40;99.90;;;;;;5071247;28;20044;-74
2023/09/18 06:56:06;;;;;;;12.82;8.70;;;19.40;99.90;;;;;;5071101;28;20024;-74
2023/09/18 06:58:31;;;;;;;14.27;9.35;;;19.40;99.90;;;;;;5069797;28;20017;-74
2023/09/18 07:00:57;;;;;;;19.17;9.13;;;19.40;99.90;;;;;;5070580;28;20016;-74
2023/09/18 07:03:23;;;;;;;14.20;8.63;;;19.40;99.90;;;;;;5070978;28;20025;-74
2023/09/18 07:05:49;;;;;;;13.98;8.00;;;19.40;99.90;;;;;;5070563;28;20048;-74
2023/09/18 07:08:19;;;;;;;12.82;7.40;;;19.40;99.90;;;;;;5070771;28;20082;-74
2023/09/18 07:10:45;;;;;;;11.30;6.82;;;19.40;99.90;;;;;;5071273;28;20020;-74
2023/09/18 07:13:11;;;;;;;13.57;6.18;;;19.40;99.90;;;;;;5070699;28;20028;-74
2023/09/18 07:15:37;;;;;;;9.27;5.55;;;19.30;99.90;;;;;;5069384;28;20483;-74
2023/09/18 07:18:03;;;;;;;8.88;5.40;;;19.30;99.90;;;;;;5070763;28;20047;-74
2023/09/18 07:20:30;;;;;;;8.98;5.50;;;19.30;99.90;;;;;;5070749;28;20429;-74
2023/09/18 07:22:55;;;;;;;8.60;4.88;;;19.30;99.90;;;;;;5070320;28;20032;-74
2023/09/18 07:25:21;;;;;;;8.27;5.18;;;19.30;99.90;;;;;;5070400;28;20056;-74
2023/09/18 07:27:47;;;;;;;9.93;5.32;;;19.30;99.90;;;;;;5070375;28;20039;-74
2023/09/18 07:30:17;;;;;;;9.38;5.90;;;19.30;99.90;;;;;;5063946;28;20021;-74
2023/09/18 07:32:43;;;;;;;8.93;5.50;;;19.30;99.90;;;;;;5070099;28;20029;-74
2023/09/18 07:35:09;;;;;;;9.80;5.10;;;19.30;99.90;;;;;;5070106;28;20077;-73
2023/09/18 07:37:35;;;;;;;10.18;5.43;;;19.30;99.90;;;;;;5070474;28;20012;-74
2023/09/18 07:40:08;;;;;;;11.98;5.40;;;19.30;99.90;;;;;;5070504;28;20475;-74
2023/09/18 07:42:33;;;;;;;12.25;5.60;;;19.30;99.90;;;;;;5069198;28;20028;-74
2023/09/18 07:44:59;;;;;;;8.68;5.43;;;19.30;99.90;;;;;;5070377;28;20411;-74
2023/09/18 07:47:25;;;;;;;11.68;5.75;;;19.30;99.90;;;;;;5070332;28;20066;-73
2023/09/18 07:49:51;;;;;;;8.77;5.05;;;19.40;99.90;;;;;;5070296;28;20013;-73
2023/09/18 07:52:17;;;;;;;8.55;5.13;;;19.40;99.90;;;;;;5069152;28;20032;-73
2023/09/18 07:54:43;;;;;;;7.85;4.95;;;19.40;99.90;;;;;;5070094;28;20464;-73
2023/09/18 07:57:09;;;;;;;9.63;4.65;;;19.50;99.90;;;;;;5070166;28;20032;-73
2023/09/18 07:59:36;;;;;;;10.32;4.97;;;19.50;99.90;;;;;;5070200;28;20025;-73
2023/09/18 08:02:02;;;;;;;9.90;4.40;;;19.60;99.90;;;;;;5070657;28;20041;-73
2023/09/18 08:04:27;;;;;;;11.20;4.90;;;19.70;99.90;;;;;;5069490;28;20454;-73
2023/09/18 08:06:53;;;;;;;7.35;4.28;;;19.70;99.90;;;;;;5070182;28;20025;-73
2023/09/18 08:09:19;;;;;;;9.25;4.25;;;19.80;99.90;;;;;;5069707;28;20101;-73
2023/09/18 08:11:44;;;;;;;9.18;4.07;;;19.90;99.90;;;;;;5069953;28;20070;-73
2023/09/18 08:14:10;;;;;;;9.13;3.85;;;20.00;99.90;;;;;;5070034;28;20074;-73
2023/09/18 08:16:38;;;;;;;8.27;3.88;;;20.00;99.90;;;;;;5070049;28;20431;-73
2023/09/18 08:19:03;;;;;;;10.55;3.88;;;20.10;99.90;;;;;;5070067;28;20464;-73
2023/09/18 08:21:29;;;;;;;7.72;4.15;;;20.20;99.90;;;;;;5070038;28;20158;-73
2023/09/18 08:23:55;;;;;;;5.40;3.42;;;20.20;99.90;;;;;;5069911;28;20066;-73
2023/09/18 08:26:21;;;;;;;8.18;3.75;;;20.20;99.90;;;;;;5069767;28;20070;-73
2023/09/18 08:28:47;;;;;;;7.13;3.80;;;20.30;99.90;;;;;;5069862;28;20025;-73
2023/09/18 08:31:16;;;;;;;8.48;3.80;;;20.20;99.90;;;;;;5069871;28;20016;-73
2023/09/18 08:33:42;;;;;;;8.30;3.63;;;20.20;99.90;;;;;;5070243;28;20348;-73
2023/09/18 08:36:07;;;;;;;9.50;3.90;;;20.30;99.90;;;;;;5069798;28;20021;-73
2023/09/18 08:38:33;;;;;;;7.70;3.85;;;20.30;99.90;;;;;;5070078;28;20025;-73
2023/09/18 08:40:59;;;;;;;6.68;4.18;;;20.30;99.90;;;;;;5074504;28;20025;-73
2023/09/18 08:43:24;;;;;;;7.90;4.35;;;20.40;99.90;;;;;;5082214;28;20025;-73
2023/09/18 08:45:52;;;;;;;6.95;4.28;;;20.30;99.90;;;;;;5074423;28;20051;-73
2023/09/18 08:48:19;;;;;;;7.22;4.10;;;20.20;99.90;;;;;;5072764;28;20066;-73
2023/09/18 08:50:45;;;;;;;8.95;4.50;;;20.20;99.90;;;;;;5072264;28;20597;-73
2023/09/18 08:53:11;;;;;;;7.10;4.22;;;20.20;99.90;;;;;;5073741;28;20017;-73
2023/09/18 08:55:37;;;;;;;7.18;4.40;;;20.10;99.90;;;;;;5073377;28;20066;-73
2023/09/18 08:58:03;;;;;;;11.60;4.95;;;20.20;99.90;;;;;;5064660;28;20516;-73
2023/09/18 09:00:28;;;;;;;10.48;4.50;;;20.20;99.90;;;;;;5073206;28;20427;-73
2023/09/18 09:02:54;;;;;;;8.00;4.35;;;20.10;99.90;;;;;;5073097;28;20046;-73
2023/09/18 09:05:21;;;;;;;6.28;4.20;;;20.20;99.90;;;;;;5073311;28;20487;-73
2023/09/18 09:07:48;;;;;;;8.80;4.80;;;20.20;99.90;;;;;;5073027;28;20020;-73
2023/09/18 09:10:14;;;;;;;8.65;4.78;;;20.20;99.90;;;;;;5064019;28;20709;-73
2023/09/18 09:12:57;;;;;;;7.97;4.38;;;20.20;99.90;;;;;;5073174;28;20024;-73
2023/09/18 09:15:28;;;;;;;7.93;4.68;;;20.20;99.90;;;;;;5073131;28;20020;-73
2023/09/18 09:18:06;;;;;;;8.30;4.38;;;20.30;99.90;;;;;;5073402;28;20094;-74
2023/09/18 09:20:32;;;;;;;6.43;4.20;;;20.30;99.90;;;;;;5067261;28;20499;-74
2023/09/18 09:23:02;;;;;;;6.90;3.88;;;20.30;99.90;;;;;;5067388;28;20073;-74
2023/09/18 09:25:33;;;;;;;8.75;3.97;;;20.30;99.90;;;;;;5065035;28;20384;-74
2023/09/18 09:28:01;;;;;;;8.52;3.95;;;20.40;99.90;;;;;;5072780;28;20028;-73
2023/09/18 09:30:28;;;;;;;5.85;3.60;;;20.40;99.90;;;;;;5072763;28;20025;-74
2023/09/18 09:32:55;;;;;;;5.63;3.88;;;20.50;99.90;;;;;;5072806;28;20066;-74
2023/09/18 09:35:42;;;;;;;5.55;3.95;;;20.60;99.90;;;;;;5073113;28;20028;-74
2023/09/18 09:38:14;;;;;;;5.15;3.60;;;20.80;99.90;;;;;;5071972;28;20043;-74
2023/09/18 09:40:40;;;;;;;6.43;3.60;;;20.90;99.90;;;;;;5071288;28;20024;-74
2023/09/18 09:43:14;;;;;;;8.70;3.83;;;21.00;99.90;;;;;;5072821;28;20502;-73
2023/09/18 09:45:41;;;;;;;7.53;4.35;;;21.10;99.90;;;;;;5071746;28;20040;-73
2023/09/18 09:48:07;;;;;;;7.13;3.95;;;21.20;99.90;;;;;;5061465;28;20112;-74
2023/09/18 09:50:55;;;;;;;11.55;4.22;;;21.30;99.90;;;;;;5072568;28;20020;-73
2023/09/18 09:53:46;;;;;;;9.35;3.90;;;21.40;99.90;;;;;;5072828;28;20085;-73
2023/09/18 09:56:12;;;;;;;7.55;4.10;;;21.50;99.90;;;;;;5069906;28;20012;-73
2023/09/18 09:58:41;;;;;;;12.30;4.40;;;21.40;99.90;;;;;;5072214;28;20036;-73
2023/09/18 10:01:10;;;;;;;5.75;4.13;;;21.40;99.90;;;;;;5069504;28;20021;-74
2023/09/18 10:03:38;;;;;;;7.43;4.82;;;21.30;99.90;;;;;;5072724;28;20044;-73
2023/09/18 10:06:05;;;;;;;11.68;4.40;;;21.30;99.90;;;;;;5072189;28;20048;-73
2023/09/18 10:08:32;;;;;;;6.88;4.38;;;21.30;99.90;;;;;;5072618;28;20021;-73
2023/09/18 10:11:16;;;;;;;6.68;4.30;;;21.30;99.90;;;;;;5071899;28;20387;-73
2023/09/18 10:13:52;;;;;;;10.93;4.55;;;21.40;99.90;;;;;;5072158;28;20019;-73
2023/09/18 10:16:21;;;;;;;10.70;4.80;;;21.40;99.90;;;;;;5072215;28;20019;-73
2023/09/18 10:19:14;;;;;;;9.05;4.07;;;21.40;99.90;;;;;;5071830;28;20017;-73
2023/09/18 10:21:52;;;;;;;9.50;5.32;;;21.50;99.90;;;;;;5071781;28;20017;-74
2023/09/18 10:24:20;;;;;;;8.60;4.70;;;21.50;99.90;;;;;;5071886;28;20531;-73
2023/09/18 10:26:56;;;;;;;9.55;4.75;;;21.60;99.90;;;;;;5071534;28;20753;-73
2023/09/18 10:29:23;;;;;;;6.78;4.30;;;21.80;99.90;;;;;;5065684;28;20020;-73
2023/09/18 10:31:51;;;;;;;7.95;4.10;;;21.90;99.90;;;;;;5071874;28;20357;-73
2023/09/18 10:34:18;;;;;;;9.32;4.60;;;22.00;99.90;;;;;;5071505;28;20023;-72
2023/09/18 10:36:47;;;;;;;8.57;3.80;;;22.20;99.90;;;;;;5072031;28;20032;-73
2023/09/18 10:39:19;;;;;;;6.80;3.60;;;22.30;99.90;;;;;;5071401;28;20091;-73
2023/09/18 10:41:48;;;;;;;6.30;3.67;;;22.40;99.90;;;;;;5071942;28;20037;-73
2023/09/18 10:44:16;;;;;;;6.15;3.60;;;22.50;99.90;;;;;;5071520;28;20070;-73
2023/09/18 10:46:42;;;;;;;8.32;3.83;;;22.50;99.90;;;;;;5071575;28;20052;-73
2023/09/18 10:49:08;;;;;;;9.60;3.60;;;22.50;99.90;;;;;;5071326;28;20027;-73
2023/09/18 10:51:33;;;;;;;8.15;3.78;;;22.60;99.90;;;;;;5071305;28;20025;-73
2023/09/18 10:54:00;;;;;;;8.82;2.90;;;22.60;99.90;;;;;;5071649;28;20089;-73
2023/09/18 10:56:26;;;;;;;8.25;3.70;;;22.70;99.90;;;;;;5071179;28;20028;-73
2023/09/18 10:59:03;;;;;;;7.07;3.05;;;22.70;99.90;;;;;;5071551;28;20349;-73
2023/09/18 11:01:32;;;;;;;9.50;3.60;;;22.80;99.90;;;;;;5070928;28;20017;-73
2023/09/18 11:04:03;;;;;;;7.47;3.15;;;22.70;99.90;;;;;;5071052;28;20021;-73
2023/09/18 11:06:29;;;;;;;9.07;3.10;;;22.70;99.90;;;;;;5070809;28;20038;-73
2023/09/18 11:09:06;;;;;;;5.90;3.13;;;22.70;99.90;;;;;;5071133;28;20746;-73
2023/09/18 11:11:35;;;;;;;4.78;2.83;;;22.70;99.90;;;;;;5068666;28;20165;-73
2023/09/18 11:14:02;;;;;;;5.28;2.60;;;22.70;99.90;;;;;;5070749;28;20499;-73
2023/09/18 11:16:27;;;;;;;5.20;2.83;;;22.70;99.90;;;;;;5070930;28;20431;-73
2023/09/18 11:19:05;;;;;;;7.30;2.88;;;22.70;99.90;;;;;;5070695;28;20013;-73
2023/09/18 11:21:32;;;;;;;6.80;3.28;;;22.80;99.90;;;;;;5069140;28;20051;-73
2023/09/18 11:24:05;;;;;;;5.80;3.17;;;22.80;99.90;;;;;;5072025;28;20020;-73
2023/09/18 11:26:34;;;;;;;8.68;2.97;;;22.90;99.90;;;;;;5070670;28;20060;-73
2023/09/18 11:29:05;;;;;;;4.45;3.10;;;22.90;99.90;;;;;;5071925;28;20399;-73
2023/09/18 11:31:43;;;;;;;7.38;2.97;;;23.00;99.90;;;;;;5072457;28;20498;-72
2023/09/18 11:34:13;;;;;;;7.05;3.58;;;23.00;99.90;;;;;;5082303;28;20040;-72
2023/09/18 11:36:40;;;;;;;7.65;3.40;;;23.00;99.90;;;;;;5080835;28;20036;-73
2023/09/18 11:39:06;;;;;;;7.38;3.78;;;23.00;99.90;;;;;;5073767;28;20024;-73
2023/09/18 11:41:36;;;;;;;7.70;3.70;;;23.00;99.90;;;;;;5064459;28;20021;-74
2023/09/18 11:44:28;;;;;;;8.05;3.70;;;23.00;99.90;;;;;;5070120;28;20028;-73
2023/09/18 11:46:54;;;;;;;9.10;3.95;;;23.10;99.90;;;;;;5062937;28;20043;-73
2023/09/18 11:49:27;;;;;;;6.38;3.70;;;23.00;99.90;;;;;;5069711;28;20339;-73
2023/09/18 11:51:54;;;;;;;5.70;3.75;;;23.00;99.90;;;;;;5068588;28;20021;-72
2023/09/18 11:54:20;;;;;;;6.95;3.70;;;23.00;99.90;;;;;;5063951;28;20047;-72
2023/09/18 11:56:46;;;;;;;6.90;3.65;;;22.90;99.90;;;;;;5072029;28;20044;-72
2023/09/18 11:59:12;;;;;;;6.72;4.30;;;22.80;99.90;;;;;;5071495;28;20059;-72
2023/09/18 12:01:46;;;;;;;8.70;4.20;;;22.70;99.90;;;;;;5063808;28;20439;-72
2023/09/18 12:04:12;;;;;;;5.93;3.95;;;22.70;99.90;;;;;;5070476;28;20678;-72
2023/09/18 12:06:41;;;;;;;7.93;4.45;;;22.80;99.90;;;;;;5060519;28;20049;-73
2023/09/18 12:09:08;;;;;;;7.30;4.40;;;22.80;99.90;;;;;;5053763;28;20025;-73
2023/09/18 12:11:35;;;;;;;7.45;4.15;;;22.80;99.90;;;;;;5068615;28;20020;-73
2023/09/18 12:14:04;;;;;;;8.15;4.32;;;22.90;99.90;;;;;;5058669;28;20019;-73
2023/09/18 12:16:29;;;;;;;8.05;4.72;;;22.90;99.90;;;;;;5071834;28;20031;-72
2023/09/18 12:18:56;;;;;;;8.95;4.57;;;23.00;99.90;;;;;;5071630;28;20378;-72
2023/09/18 12:21:22;;;;;;;7.38;5.20;;;23.00;99.90;;;;;;5072482;28;20017;-73
2023/09/18 12:23:48;;;;;;;7.10;4.75;;;23.00;99.90;;;;;;5073239;28;20032;-72
2023/09/18 12:26:15;;;;;;;9.90;4.60;;;23.00;99.90;;;;;;5069622;28;20436;-73
2023/09/18 12:28:42;;;;;;;7.28;4.15;;;23.10;99.90;;;;;;5068485;28;20017;-72
2023/09/18 12:31:15;;;;;;;11.07;4.47;;;23.10;99.90;;;;;;5075523;28;20017;-72
2023/09/18 12:33:43;;;;;;;7.57;4.20;;;23.10;99.90;;;;;;5075031;28;20046;-72
2023/09/18 12:36:10;;;;;;;9.35;4.65;;;23.20;99.90;;;;;;5070669;28;20028;-72
2023/09/18 12:38:37;;;;;;;11.80;4.43;;;23.30;99.90;;;;;;5074513;28;20021;-72